Time;durP1;ratioP1;P1;durP2;ratioP2;P2;SDS_P1;SDS_P2;PMS_P1;PMS_P2;Temp;Humidity;BMP_temperature;BMP_pressure;BME280_temperature;BME280_humidity;BME280_pressure;Samples;Min_cycle;Max_cycle;Signal;HPM_P1;HPM_P2
2021/08/19 00:02:17;;;;;;;5.78;3.83;;;;;;;12.29;59.00;95452.09;5010714;28;20168;-68
2021/08/19 00:04:43;;;;;;;5.18;3.72;;;;;;;11.50;61.93;95455.41;5005957;28;20124;-69
2021/08/19 00:07:08;;;;;;;4.75;3.30;;;;;;;12.63;58.21;95450.50;5010599;28;20108;-69
2021/08/19 00:09:35;;;;;;;4.78;3.33;;;;;;;12.34;58.57;95444.31;5009980;28;20118;-68
2021/08/19 00:12:01;;;;;;;4.53;3.55;;;;;;;12.14;59.46;95449.53;5010521;28;20109;-69
2021/08/19 00:14:26;;;;;;;7.10;3.75;;;;;;;12.06;59.79;95453.13;5009016;28;20125;-68
2021/08/19 00:16:52;;;;;;;5.00;3.10;;;;;;;12.09;59.97;95447.41;5009878;28;20133;-68
2021/08/19 00:19:17;;;;;;;5.25;3.67;;;;;;;12.61;58.60;95447.19;5004475;28;20090;-68
2021/08/19 00:21:43;;;;;;;6.63;3.65;;;;;;;12.28;59.33;95447.78;5010025;28;20117;-68
2021/08/19 00:24:08;;;;;;;4.68;3.60;;;;;;;12.20;59.75;95448.72;5010637;28;20070;-68
2021/08/19 00:26:34;;;;;;;5.47;3.90;;;;;;;12.27;59.67;95443.44;5009949;28;20110;-68
2021/08/19 00:28:59;;;;;;;8.80;3.70;;;;;;;12.72;58.33;95432.47;5008975;28;20117;-68
2021/08/19 00:31:25;;;;;;;7.63;3.67;;;;;;;12.58;58.43;95438.75;5010042;28;20082;-68
2021/08/19 00:33:50;;;;;;;5.13;3.67;;;;;;;12.56;58.60;95436.28;5009887;28;20301;-68
2021/08/19 00:36:16;;;;;;;4.65;3.05;;;;;;;12.61;58.52;95443.72;5010049;28;20078;-68
2021/08/19 00:38:42;;;;;;;5.03;3.25;;;;;;;12.91;57.80;95438.94;5010039;28;20510;-68
2021/08/19 00:41:08;;;;;;;6.13;3.50;;;;;;;12.98;57.06;95438.97;5006226;28;20102;-69
2021/08/19 00:43:34;;;;;;;7.65;3.42;;;;;;;12.99;57.39;95427.28;5007439;28;20074;-68
2021/08/19 00:46:01;;;;;;;7.40;3.72;;;;;;;12.58;58.43;95422.72;5008740;28;20106;-68
2021/08/19 00:48:27;;;;;;;5.17;3.10;;;;;;;12.43;59.29;95434.34;5007789;28;20085;-68
2021/08/19 00:50:52;;;;;;;5.43;3.80;;;;;;;12.31;59.41;95428.72;5009832;28;20086;-68
2021/08/19 00:53:18;;;;;;;5.65;3.25;;;;;;;12.72;58.30;95427.13;5002252;28;20119;-68
2021/08/19 00:55:43;;;;;;;5.63;2.55;;;;;;;12.40;59.14;95424.88;5010423;28;20173;-68
2021/08/19 00:58:09;;;;;;;6.20;3.35;;;;;;;12.51;59.07;95422.69;5009302;28;20110;-68
2021/08/19 01:00:35;;;;;;;4.78;3.38;;;;;;;12.84;58.03;95421.22;4991770;28;20105;-68
2021/08/19 01:03:01;;;;;;;5.43;3.45;;;;;;;12.60;58.67;95418.84;5009877;28;20424;-68
2021/08/19 01:05:29;;;;;;;5.93;3.60;;;;;;;12.77;58.37;95422.03;4999958;28;20586;-68
2021/08/19 01:07:57;;;;;;;7.38;3.75;;;;;;;12.65;58.83;95419.06;5005721;28;20104;-68
2021/08/19 01:10:22;;;;;;;4.65;3.50;;;;;;;11.94;61.35;95422.63;4989677;28;20126;-68
2021/08/19 01:12:48;;;;;;;3.80;3.40;;;;;;;11.99;60.71;95417.53;5007891;28;20221;-68
2021/08/19 01:15:13;;;;;;;6.90;3.90;;;;;;;12.30;59.59;95419.03;5009967;28;20530;-68
2021/08/19 01:17:39;;;;;;;4.35;3.85;;;;;;;11.83;61.06;95423.97;5005099;28;20106;-68
2021/08/19 01:20:06;;;;;;;5.28;3.50;;;;;;;12.30;59.95;95418.22;5003565;28;20101;-68
2021/08/19 01:22:31;;;;;;;5.03;3.70;;;;;;;12.69;58.82;95416.00;5008763;28;20100;-68
2021/08/19 01:24:57;;;;;;;6.75;3.80;;;;;;;11.54;62.12;95415.88;5003601;28;20114;-68
2021/08/19 01:27:22;;;;;;;5.57;3.70;;;;;;;11.87;61.53;95415.38;5008916;28;20086;-68
2021/08/19 01:29:48;;;;;;;5.25;3.63;;;;;;;12.26;60.22;95420.44;5009246;28;20118;-68
2021/08/19 01:32:14;;;;;;;7.63;3.50;;;;;;;11.56;62.22;95415.69;5009154;28;20132;-68
2021/08/19 01:34:39;;;;;;;6.05;3.45;;;;;;;11.82;61.29;95416.97;5007707;28;20125;-68
2021/08/19 01:37:05;;;;;;;5.13;3.50;;;;;;;11.90;61.30;95412.31;5006619;28;20109;-69
2021/08/19 01:39:30;;;;;;;5.07;3.47;;;;;;;11.29;63.37;95421.53;5008248;28;20930;-68
2021/08/19 01:41:56;;;;;;;5.65;3.65;;;;;;;11.62;62.47;95421.09;5008568;28;20098;-68
2021/08/19 01:44:21;;;;;;;5.97;4.03;;;;;;;11.18;63.43;95408.72;5009503;28;20082;-68
2021/08/19 01:46:54;;;;;;;5.70;3.60;;;;;;;11.54;62.32;95418.56;5006666;28;20853;-68
2021/08/19 01:49:19;;;;;;;6.43;3.40;;;;;;;11.45;62.78;95412.50;5005582;28;20106;-68
2021/08/19 01:51:45;;;;;;;7.05;4.00;;;;;;;11.60;62.25;95403.63;5007938;28;20098;-68
2021/08/19 01:54:11;;;;;;;8.07;3.90;;;;;;;11.38;62.73;95415.09;5001292;28;20586;-68
2021/08/19 01:56:36;;;;;;;7.50;3.60;;;;;;;12.24;60.45;95401.16;5008569;28;20547;-68
2021/08/19 01:59:01;;;;;;;4.93;3.00;;;;;;;11.84;61.47;95402.44;5006262;28;20082;-68
2021/08/19 02:01:27;;;;;;;5.95;3.72;;;;;;;12.06;60.63;95402.44;5008892;28;20094;-68
2021/08/19 02:03:53;;;;;;;6.43;3.50;;;;;;;12.08;60.71;95402.25;5009094;28;20841;-68
2021/08/19 02:06:19;;;;;;;4.47;3.35;;;;;;;12.18;60.35;95399.25;5008751;28;20268;-68
2021/08/19 02:08:44;;;;;;;8.18;4.07;;;;;;;10.96;63.59;95400.63;5008833;28;20106;-68
2021/08/19 02:11:10;;;;;;;7.38;3.83;;;;;;;11.34;62.97;95397.84;4999051;28;20522;-68
2021/08/19 02:13:36;;;;;;;5.03;3.60;;;;;;;11.96;61.22;95402.72;5008484;28;20221;-68
2021/08/19 02:16:02;;;;;;;7.05;3.70;;;;;;;12.16;60.27;95402.09;5005504;28;20809;-68
2021/08/19 02:18:27;;;;;;;5.47;3.53;;;;;;;12.17;60.04;95405.59;5011554;28;20138;-68
2021/08/19 02:20:52;;;;;;;5.63;3.50;;;;;;;12.28;59.83;95399.75;5012196;28;20099;-68
2021/08/19 02:23:18;;;;;;;6.25;3.53;;;;;;;12.23;60.19;95399.47;5012643;28;20442;-68
2021/08/19 02:25:43;;;;;;;6.75;3.67;;;;;;;12.06;60.96;95398.91;5012419;28;20618;-68
2021/08/19 02:28:09;;;;;;;4.45;3.33;;;;;;;12.18;60.41;95399.25;5012305;28;20143;-68
2021/08/19 02:30:34;;;;;;;4.68;3.47;;;;;;;12.24;60.19;95398.47;5012516;28;20110;-68
2021/08/19 02:33:01;;;;;;;5.75;3.80;;;;;;;11.52;62.10;95408.06;5011878;28;20110;-68
2021/08/19 02:35:27;;;;;;;6.95;3.42;;;;;;;11.69;61.96;95402.47;5012814;28;20169;-68
2021/08/19 02:37:56;;;;;;;7.25;3.72;;;;;;;11.77;61.34;95396.22;5003417;28;20669;-68
2021/08/19 02:40:23;;;;;;;6.13;3.30;;;;;;;12.26;60.10;95391.09;5010422;28;20114;-68
2021/08/19 02:42:48;;;;;;;5.18;3.53;;;;;;;12.25;60.09;95387.63;5010341;28;20130;-68
2021/08/19 02:45:13;;;;;;;6.18;3.03;;;;;;;12.54;59.17;95390.25;5010362;28;20625;-68
2021/08/19 02:47:39;;;;;;;5.57;3.15;;;;;;;11.76;61.79;95394.53;5012417;28;20087;-68
2021/08/19 02:50:05;;;;;;;4.82;3.83;;;;;;;11.66;61.91;95389.53;5011456;28;20797;-68
2021/08/19 02:52:30;;;;;;;6.60;3.78;;;;;;;12.31;59.65;95388.69;5006935;28;20106;-68
2021/08/19 02:54:55;;;;;;;4.13;3.47;;;;;;;12.33;59.56;95381.28;5010689;28;20415;-69
2021/08/19 02:57:21;;;;;;;6.15;3.60;;;;;;;12.42;58.91;95393.44;5011150;28;20110;-68
2021/08/19 02:59:46;;;;;;;5.13;3.80;;;;;;;12.51;58.60;95385.31;5011669;28;20083;-68
2021/08/19 03:02:12;;;;;;;4.88;3.80;;;;;;;12.64;58.27;95384.53;5011922;28;20110;-68
2021/08/19 03:04:37;;;;;;;5.13;3.53;;;;;;;12.75;58.28;95384.00;5011604;28;20420;-68
2021/08/19 03:07:02;;;;;;;5.68;3.63;;;;;;;12.50;59.03;95380.97;5012101;28;20532;-68
2021/08/19 03:09:28;;;;;;;3.90;3.40;;;;;;;12.96;57.91;95378.75;5010947;28;20133;-68
2021/08/19 03:11:53;;;;;;;4.80;3.20;;;;;;;13.35;56.48;95384.47;5007011;28;20491;-68
2021/08/19 03:14:19;;;;;;;6.03;3.30;;;;;;;13.36;56.37;95386.13;5009922;28;20114;-68
2021/08/19 03:16:44;;;;;;;5.93;3.30;;;;;;;13.39;56.59;95391.88;5010463;28;20041;-69
2021/08/19 03:19:09;;;;;;;5.13;3.28;;;;;;;13.16;56.46;95390.38;5010378;28;20042;-68
2021/08/19 03:21:36;;;;;;;5.97;3.35;;;;;;;13.35;56.15;95396.00;5010411;28;20060;-68
2021/08/19 03:24:03;;;;;;;4.65;3.40;;;;;;;13.25;56.54;95390.19;5010014;28;20065;-68
2021/08/19 03:26:28;;;;;;;5.10;3.30;;;;;;;13.17;56.65;95391.19;5010142;28;20461;-68
2021/08/19 03:28:54;;;;;;;5.40;3.58;;;;;;;12.40;59.33;95382.16;5009607;28;20038;-68
2021/08/19 03:31:19;;;;;;;5.15;3.47;;;;;;;13.07;57.14;95383.56;5010575;28;20038;-68
2021/08/19 03:33:46;;;;;;;5.60;3.33;;;;;;;12.98;57.15;95384.75;5009934;28;20052;-68
2021/08/19 03:36:11;;;;;;;5.05;3.60;;;;;;;12.28;59.08;95384.53;5009043;28;20037;-68
2021/08/19 03:38:37;;;;;;;4.57;3.13;;;;;;;13.13;57.05;95380.06;5009716;28;20038;-68
2021/08/19 03:41:02;;;;;;;7.15;3.25;;;;;;;13.08;56.78;95376.38;5009853;28;20041;-68
2021/08/19 03:43:28;;;;;;;7.40;3.65;;;;;;;12.08;59.63;95383.56;5010214;28;20426;-68
2021/08/19 03:45:53;;;;;;;9.30;3.47;;;;;;;12.03;60.64;95368.09;5009877;28;20050;-68
2021/08/19 03:48:18;;;;;;;5.05;3.28;;;;;;;13.02;57.40;95369.97;5009270;28;20037;-68
2021/08/19 03:50:44;;;;;;;8.07;3.30;;;;;;;13.19;56.88;95381.13;5007627;28;20044;-68
2021/08/19 03:53:10;;;;;;;3.65;3.25;;;;;;;12.59;58.78;95382.47;5006196;28;20046;-68
2021/08/19 03:55:36;;;;;;;4.72;3.22;;;;;;;12.88;57.70;95380.56;5010188;28;20040;-68
2021/08/19 03:58:02;;;;;;;5.53;3.30;;;;;;;12.82;57.93;95381.38;5009603;28;20426;-68
2021/08/19 04:00:28;;;;;;;8.43;3.80;;;;;;;11.84;60.45;95378.44;5006571;28;20038;-68
2021/08/19 04:02:53;;;;;;;4.18;3.20;;;;;;;12.65;58.09;95378.22;5008381;28;20029;-68
2021/08/19 04:05:19;;;;;;;4.97;3.15;;;;;;;12.80;58.16;95378.06;5009399;28;20049;-68
2021/08/19 04:07:44;;;;;;;5.50;3.25;;;;;;;13.30;56.74;95387.75;5010169;28;20037;-68
2021/08/19 04:10:10;;;;;;;5.68;3.40;;;;;;;13.33;56.30;95375.84;4968671;28;1139856;-67
2021/08/19 04:12:36;;;;;;;4.95;3.60;;;;;;;12.21;59.22;95386.31;5010438;28;20042;-67
2021/08/19 04:15:03;;;;;;;4.43;3.50;;;;;;;12.39;59.46;95383.19;5010594;28;20041;-67
2021/08/19 04:17:28;;;;;;;3.90;3.47;;;;;;;13.11;57.17;95384.81;5008998;28;20033;-68
2021/08/19 04:19:54;;;;;;;4.40;3.08;;;;;;;13.51;56.17;95389.47;5010497;28;20473;-67
2021/08/19 04:22:19;;;;;;;6.20;3.30;;;;;;;13.53;55.75;95389.25;5010522;28;20041;-67
2021/08/19 04:24:45;;;;;;;4.43;3.20;;;;;;;13.21;56.74;95391.63;5008242;28;20316;-68
2021/08/19 04:27:10;;;;;;;5.35;3.38;;;;;;;13.13;56.66;95387.28;5006848;28;20467;-68
2021/08/19 04:29:36;;;;;;;7.15;3.50;;;;;;;13.37;56.33;95391.28;5006883;28;20403;-67
2021/08/19 04:32:01;;;;;;;4.90;3.42;;;;;;;13.13;56.82;95388.09;5010459;28;20426;-67
2021/08/19 04:34:27;;;;;;;5.50;3.35;;;;;;;13.50;55.97;95395.00;5010312;28;20124;-67
2021/08/19 04:36:53;;;;;;;4.88;3.20;;;;;;;13.22;56.83;95382.59;5009891;28;20054;-67
2021/08/19 04:39:18;;;;;;;5.22;3.38;;;;;;;13.43;55.96;95386.97;5009081;28;20411;-68
2021/08/19 04:41:44;;;;;;;5.47;3.50;;;;;;;13.35;56.27;95389.81;5009664;28;20042;-68
2021/08/19 04:44:09;;;;;;;5.47;3.47;;;;;;;13.36;56.34;95388.81;5004955;28;20041;-68
2021/08/19 04:46:34;;;;;;;3.78;3.05;;;;;;;12.93;57.64;95386.13;5009610;28;20046;-68
2021/08/19 04:49:05;;;;;;;4.82;3.40;;;;;;;12.53;58.85;95388.59;5009987;28;20092;-68
2021/08/19 04:51:32;;;;;;;4.10;3.50;;;;;;;13.01;57.44;95379.00;5009985;28;20042;-68
2021/08/19 04:53:57;;;;;;;5.72;3.50;;;;;;;12.80;57.93;95375.41;5001825;28;20034;-68
2021/08/19 04:56:27;;;;;;;4.05;3.30;;;;;;;13.04;57.51;95367.91;5009694;28;20100;-68
2021/08/19 04:58:53;;;;;;;5.68;3.75;;;;;;;12.59;58.78;95374.47;5010307;28;20033;-68
2021/08/19 05:01:18;;;;;;;4.15;3.65;;;;;;;12.62;58.99;95381.25;5009034;28;20439;-68
2021/08/19 05:03:43;;;;;;;5.03;3.70;;;;;;;12.62;58.76;95379.41;5010300;28;20581;-68
2021/08/19 05:06:09;;;;;;;6.05;3.88;;;;;;;12.54;58.68;95379.56;5009114;28;20049;-68
2021/08/19 05:08:34;;;;;;;5.38;3.38;;;;;;;12.39;59.53;95377.84;5009813;28;20038;-68
2021/08/19 05:11:00;;;;;;;4.97;3.60;;;;;;;12.68;58.81;95372.44;5009300;28;20053;-68
2021/08/19 05:13:25;;;;;;;6.90;3.72;;;;;;;12.92;57.71;95381.81;5009858;28;20038;-68
2021/08/19 05:15:50;;;;;;;4.40;4.00;;;;;;;12.64;58.46;95384.53;5009626;28;20034;-67
2021/08/19 05:18:16;;;;;;;4.68;3.67;;;;;;;12.58;58.60;95383.47;5009365;28;20049;-67
2021/08/19 05:20:41;;;;;;;4.70;3.65;;;;;;;13.09;57.58;95380.69;5009027;28;20038;-67
2021/08/19 05:23:07;;;;;;;4.38;3.30;;;;;;;13.33;56.79;95378.50;5009913;28;20025;-67
2021/08/19 05:25:33;;;;;;;4.85;3.55;;;;;;;13.25;56.94;95390.19;5009374;28;20037;-68
2021/08/19 05:27:58;;;;;;;5.78;4.00;;;;;;;12.75;57.80;95385.84;5009698;28;20045;-67
2021/08/19 05:30:24;;;;;;;5.35;3.65;;;;;;;13.05;57.38;95383.75;5005656;28;20088;-68
2021/08/19 05:32:49;;;;;;;5.07;3.55;;;;;;;13.22;57.47;95386.06;5008968;28;20041;-67
2021/08/19 05:35:15;;;;;;;5.25;3.80;;;;;;;13.49;56.20;95391.50;5007926;28;20041;-67
2021/08/19 05:37:40;;;;;;;4.53;3.55;;;;;;;13.53;56.17;95391.94;5009150;28;20034;-67
2021/08/19 05:40:06;;;;;;;6.63;4.07;;;;;;;13.20;57.06;95390.81;5009276;28;20021;-68
2021/08/19 05:42:32;;;;;;;5.80;4.35;;;;;;;12.82;58.25;95391.22;5009018;28;20034;-67
2021/08/19 05:44:57;;;;;;;6.40;3.97;;;;;;;12.96;58.06;95400.97;5008640;28;20375;-67
2021/08/19 05:47:23;;;;;;;5.60;3.72;;;;;;;13.30;56.90;95395.78;5009540;28;20029;-67
2021/08/19 05:49:48;;;;;;;4.80;3.53;;;;;;;13.49;56.29;95396.03;5008915;28;20037;-67
2021/08/19 05:52:17;;;;;;;6.07;3.70;;;;;;;13.63;56.15;95394.22;5002287;28;20042;-67
2021/08/19 05:54:42;;;;;;;5.85;3.83;;;;;;;12.58;59.39;95396.03;5005234;28;20041;-68
2021/08/19 05:57:08;;;;;;;4.95;3.83;;;;;;;12.56;59.04;95398.91;5008120;28;20139;-68
2021/08/19 05:59:34;;;;;;;5.28;3.88;;;;;;;12.70;58.86;95404.31;5009368;28;20045;-67
2021/08/19 06:01:59;;;;;;;5.65;4.00;;;;;;;13.37;56.77;95401.13;5008700;28;20038;-67
2021/08/19 06:04:25;;;;;;;4.55;3.70;;;;;;;13.44;56.78;95399.31;5008930;28;20383;-67
2021/08/19 06:06:50;;;;;;;5.53;3.97;;;;;;;12.54;59.09;95411.59;5008899;28;20045;-68
2021/08/19 06:09:16;;;;;;;4.88;3.35;;;;;;;12.16;60.80;95404.78;5007299;28;20570;-67
2021/08/19 06:11:41;;;;;;;7.13;3.88;;;;;;;12.28;60.20;95413.88;5006222;28;20038;-68
2021/08/19 06:14:06;;;;;;;7.07;3.63;;;;;;;12.66;58.88;95415.41;5008859;28;20104;-68
2021/08/19 06:16:32;;;;;;;4.45;3.20;;;;;;;12.05;61.03;95418.59;5008281;28;20038;-68
2021/08/19 06:18:59;;;;;;;5.57;3.50;;;;;;;12.37;60.11;95408.41;5009078;28;20426;-69
2021/08/19 06:21:25;;;;;;;7.63;3.83;;;;;;;12.64;59.46;95417.44;5007554;28;20030;-69
2021/08/19 06:23:50;;;;;;;7.85;3.97;;;;;;;12.11;60.78;95412.53;5009212;28;20053;-69
2021/08/19 06:26:16;;;;;;;4.20;3.20;;;;;;;12.58;59.55;95407.50;5003087;28;20048;-69
2021/08/19 06:28:41;;;;;;;4.70;3.28;;;;;;;12.90;58.80;95413.25;5002666;28;20030;-68
2021/08/19 06:31:07;;;;;;;5.38;3.60;;;;;;;12.72;58.86;95407.63;5008978;28;20034;-68
2021/08/19 06:33:32;;;;;;;6.35;3.70;;;;;;;12.80;58.31;95415.47;5007586;28;20046;-68
2021/08/19 06:35:58;;;;;;;6.15;3.28;;;;;;;12.44;60.09;95414.63;5004209;28;20038;-68
2021/08/19 06:38:23;;;;;;;7.43;3.80;;;;;;;12.56;59.14;95422.09;5008285;28;20084;-68
2021/08/19 06:40:49;;;;;;;4.90;3.45;;;;;;;12.62;59.73;95414.13;5006347;28;20045;-68
2021/08/19 06:43:14;;;;;;;4.50;3.75;;;;;;;12.27;60.67;95416.75;5008542;28;20041;-67
2021/08/19 06:45:40;;;;;;;4.47;3.75;;;;;;;12.64;59.33;95416.59;5008837;28;20049;-66
2021/08/19 06:48:05;;;;;;;5.57;3.72;;;;;;;12.14;61.25;95412.16;5008185;28;20045;-66
2021/08/19 06:50:30;;;;;;;6.78;3.72;;;;;;;12.36;60.19;95420.09;5008527;28;20037;-66
2021/08/19 06:52:56;;;;;;;4.80;3.70;;;;;;;12.71;59.46;95412.13;5006366;28;20041;-66
2021/08/19 06:55:21;;;;;;;8.95;3.85;;;;;;;11.41;62.95;95424.56;5008922;28;20694;-66
2021/08/19 06:57:47;;;;;;;5.55;3.95;;;;;;;11.79;61.77;95426.16;5007675;28;20033;-66
2021/08/19 07:00:13;;;;;;;4.53;3.15;;;;;;;12.76;58.81;95430.22;5008603;28;20176;-66
2021/08/19 07:02:38;;;;;;;6.35;3.63;;;;;;;12.64;59.32;95428.13;5008701;28;20124;-67
2021/08/19 07:05:05;;;;;;;4.57;3.70;;;;;;;12.66;59.26;95433.25;5011701;28;20109;-66
2021/08/19 07:07:31;;;;;;;4.47;3.60;;;;;;;12.57;59.54;95437.91;5009924;28;20041;-66
2021/08/19 07:09:56;;;;;;;6.35;3.70;;;;;;;12.92;58.89;95429.91;5011458;28;20126;-67
2021/08/19 07:12:24;;;;;;;3.75;3.33;;;;;;;13.50;56.90;95437.78;5007443;28;20079;-67
2021/08/19 07:14:50;;;;;;;5.88;3.67;;;;;;;13.21;57.66;95437.06;4995241;28;20037;-67
2021/08/19 07:17:15;;;;;;;8.18;3.60;;;;;;;13.27;57.51;95428.25;5008878;28;20038;-67
2021/08/19 07:19:41;;;;;;;5.00;3.20;;;;;;;13.35;56.92;95428.06;5005719;28;20541;-67
2021/08/19 07:22:06;;;;;;;5.90;3.15;;;;;;;13.44;56.86;95431.41;5007460;28;20033;-67
2021/08/19 07:24:32;;;;;;;5.88;3.13;;;;;;;12.95;58.43;95433.22;5002996;28;20480;-68
2021/08/19 07:26:57;;;;;;;9.07;3.15;;;;;;;12.84;58.42;95435.41;5003942;28;20542;-67
2021/08/19 07:29:23;;;;;;;5.47;3.88;;;;;;;12.12;60.02;95436.38;5004987;28;20410;-67
2021/08/19 07:31:48;;;;;;;4.00;3.25;;;;;;;12.99;58.17;95434.47;5000021;28;20541;-68
2021/08/19 07:34:14;;;;;;;5.20;3.75;;;;;;;13.09;57.19;95429.59;5004772;28;20034;-67
2021/08/19 07:36:39;;;;;;;4.93;3.60;;;;;;;12.64;58.70;95433.44;5004676;28;20045;-67
2021/08/19 07:39:05;;;;;;;7.38;3.90;;;;;;;13.20;57.35;95435.41;5004275;28;20059;-68
2021/08/19 07:41:33;;;;;;;5.38;3.33;;;;;;;13.61;56.64;95439.88;5010749;28;20133;-67
2021/08/19 07:43:59;;;;;;;4.63;3.40;;;;;;;13.67;56.02;95443.59;5005421;28;20074;-68
2021/08/19 07:46:25;;;;;;;5.55;3.40;;;;;;;13.77;55.62;95443.22;5001826;28;20582;-68
2021/08/19 07:48:50;;;;;;;5.40;3.28;;;;;;;13.50;56.84;95448.50;5004204;28;20128;-67
2021/08/19 07:51:16;;;;;;;5.38;3.30;;;;;;;13.67;56.29;95441.72;5004613;28;20546;-67
2021/08/19 07:53:42;;;;;;;6.35;3.17;;;;;;;13.61;56.28;95442.56;4991383;28;20659;-67
2021/08/19 07:56:08;;;;;;;4.90;3.20;;;;;;;13.60;56.28;95440.88;4996330;28;20089;-67
2021/08/19 07:58:33;;;;;;;6.93;3.45;;;;;;;13.09;57.97;95445.63;5003897;28;20102;-67
2021/08/19 08:00:59;;;;;;;5.15;3.60;;;;;;;13.52;56.41;95449.09;5002963;28;20565;-67
2021/08/19 08:03:25;;;;;;;4.45;3.45;;;;;;;14.02;55.24;95453.38;4997020;28;20085;-67
2021/08/19 08:05:50;;;;;;;3.53;3.00;;;;;;;14.22;54.55;95437.31;4998224;28;20597;-67
2021/08/19 08:08:16;;;;;;;5.38;3.20;;;;;;;14.30;54.62;95444.31;5003217;28;20078;-67
2021/08/19 08:10:43;;;;;;;4.63;3.47;;;;;;;14.52;53.85;95441.44;5004404;28;20188;-67
2021/08/19 08:13:10;;;;;;;4.85;3.80;;;;;;;12.84;58.03;95450.59;5000337;28;20117;-66
2021/08/19 08:15:36;;;;;;;4.82;3.33;;;;;;;14.07;55.22;95448.22;5001852;28;20543;-67
2021/08/19 08:18:02;;;;;;;4.75;3.17;;;;;;;14.44;54.17;95445.13;5004020;28;20164;-67
2021/08/19 08:20:27;;;;;;;5.45;3.28;;;;;;;14.75;52.90;95451.72;4998713;28;20086;-66
2021/08/19 08:22:53;;;;;;;4.60;2.85;;;;;;;14.36;54.22;95445.34;5003600;28;20121;-66
2021/08/19 08:25:19;;;;;;;5.55;3.30;;;;;;;14.44;53.80;95453.16;5001941;28;20581;-66
2021/08/19 08:28:43;;;;;;;5.68;3.38;;;;;;;14.68;53.51;95451.72;4999704;28;20074;-66
2021/08/19 08:30:52;;;;;;;4.63;3.50;;;;;;;14.58;53.72;95456.66;5003835;28;20106;-66
2021/08/19 08:33:18;;;;;;;5.05;3.40;;;;;;;12.49;60.09;95462.09;4999734;28;20114;-66
2021/08/19 08:35:44;;;;;;;3.50;3.17;;;;;;;13.12;57.85;95466.63;5001873;28;20074;-67
2021/08/19 08:38:11;;;;;;;4.65;3.22;;;;;;;13.96;55.81;95460.34;4989805;28;20103;-66
2021/08/19 08:40:38;;;;;;;5.68;3.08;;;;;;;14.70;53.44;95459.53;5002137;28;20078;-67
2021/08/19 08:43:04;;;;;;;4.45;3.30;;;;;;;13.76;55.30;95473.66;5004488;28;20630;-67
2021/08/19 08:45:34;;;;;;;4.85;2.90;;;;;;;14.36;54.21;95456.88;4999395;28;20230;-66
2021/08/19 08:48:10;;;;;;;3.75;2.95;;;;;;;13.10;57.63;95467.84;5002759;28;20078;-67
2021/08/19 08:50:36;;;;;;;4.15;2.95;;;;;;;14.06;55.83;95476.84;5003102;28;20598;-67
2021/08/19 08:53:04;;;;;;;9.32;3.20;;;;;;;13.43;57.51;95477.88;4980319;28;20129;-66
2021/08/19 08:55:29;;;;;;;4.88;3.20;;;;;;;13.98;55.13;95473.53;5002613;28;20198;-67
2021/08/19 08:57:55;;;;;;;4.18;2.60;;;;;;;14.66;53.88;95472.53;5002966;28;20110;-67
2021/08/19 09:00:20;;;;;;;4.85;3.20;;;;;;;13.91;55.44;95477.00;5003253;28;20089;-67
2021/08/19 09:02:45;;;;;;;5.35;2.92;;;;;;;14.67;53.33;95476.03;5003041;28;20101;-67
2021/08/19 09:05:16;;;;;;;7.55;4.25;;;;;;;14.07;55.24;95472.31;5001990;28;20248;-67
2021/08/19 09:07:41;;;;;;;3.92;2.60;;;;;;;14.18;54.84;95476.25;5002952;28;20117;-66
2021/08/19 09:10:07;;;;;;;3.65;3.20;;;;;;;14.05;55.44;95472.50;5002859;28;20233;-66
2021/08/19 09:12:42;;;;;;;4.05;2.70;;;;;;;14.42;54.44;95471.31;5002420;28;20112;-66
2021/08/19 09:15:12;;;;;;;3.60;2.67;;;;;;;14.04;54.85;95486.13;5002511;28;20531;-67
2021/08/19 09:17:51;;;;;;;5.20;2.58;;;;;;;14.32;54.78;95483.25;5002481;28;20565;-67
2021/08/19 09:20:17;;;;;;;3.70;2.28;;;;;;;14.32;53.63;95472.53;4996235;28;20105;-67
2021/08/19 09:22:52;;;;;;;3.90;2.13;;;;;;;13.93;55.14;95480.31;5002836;28;20098;-67
2021/08/19 09:25:39;;;;;;;4.53;2.70;;;;;;;14.69;53.28;95474.78;5001662;28;20372;-67
2021/08/19 09:28:26;;;;;;;4.00;2.55;;;;;;;14.69;52.82;95474.78;5003011;28;20169;-67
2021/08/19 09:30:54;;;;;;;2.80;2.50;;;;;;;14.70;53.41;95468.41;4998538;28;20620;-67
2021/08/19 09:33:24;;;;;;;3.33;2.58;;;;;;;14.65;53.71;95472.75;5006336;28;20209;-67
2021/08/19 09:35:50;;;;;;;3.13;2.20;;;;;;;14.75;53.71;95469.69;4998727;28;20497;-67
2021/08/19 09:38:21;;;;;;;3.95;2.70;;;;;;;14.65;53.77;95468.19;5002189;28;20232;-67
2021/08/19 09:41:07;;;;;;;3.40;2.50;;;;;;;14.36;53.94;95464.94;5001374;28;20090;-66
2021/08/19 09:43:52;;;;;;;3.53;2.50;;;;;;;15.13;53.00;95458.22;4999526;28;20070;-67
2021/08/19 09:46:36;;;;;;;2.88;2.42;;;;;;;15.13;52.16;95460.91;4995620;28;20261;-67
2021/08/19 09:49:02;;;;;;;4.18;2.60;;;;;;;15.79;51.22;95462.72;5004500;28;20110;-66
2021/08/19 09:51:28;;;;;;;4.32;2.60;;;;;;;15.75;50.41;95460.47;4980795;28;20094;-67
2021/08/19 09:53:55;;;;;;;4.30;2.58;;;;;;;13.64;54.80;95476.94;5000745;28;20130;-67
2021/08/19 09:56:30;;;;;;;3.50;2.55;;;;;;;14.16;54.01;95459.56;4997454;28;20082;-66
2021/08/19 09:59:19;;;;;;;3.90;2.60;;;;;;;13.68;54.47;95462.13;4999602;28;20073;-67
2021/08/19 10:01:48;;;;;;;3.83;2.28;;;;;;;15.62;50.21;95460.56;5002911;28;20658;-67
2021/08/19 10:04:13;;;;;;;2.72;2.50;;;;;;;15.88;50.64;95456.09;5003162;28;20117;-67
2021/08/19 10:06:39;;;;;;;2.78;1.98;;;;;;;15.60;50.78;95457.25;5000475;28;20098;-67
2021/08/19 10:09:04;;;;;;;4.00;2.30;;;;;;;15.66;49.57;95444.84;5000051;28;20157;-67
2021/08/19 10:11:31;;;;;;;3.25;2.00;;;;;;;15.93;49.72;95458.94;5000093;28;20158;-67
2021/08/19 10:13:56;;;;;;;5.18;2.50;;;;;;;16.15;49.28;95455.06;4972912;28;20118;-67
2021/08/19 10:16:21;;;;;;;2.20;2.00;;;;;;;16.67;48.43;95454.91;4995922;28;20080;-66
2021/08/19 10:18:48;;;;;;;3.75;1.90;;;;;;;16.38;47.71;95471.47;4992442;28;20129;-67
2021/08/19 10:21:15;;;;;;;2.63;2.00;;;;;;;15.40;49.72;95455.44;4981231;28;20157;-67
2021/08/19 10:23:41;;;;;;;2.78;2.13;;;;;;;15.35;50.18;95458.78;4993636;28;20075;-67
2021/08/19 10:26:10;;;;;;;3.08;2.25;;;;;;;15.42;51.55;95453.41;5000425;28;20155;-66
2021/08/19 10:28:47;;;;;;;3.33;2.72;;;;;;;15.63;51.42;95451.47;4991955;28;20159;-67
2021/08/19 10:31:13;;;;;;;2.58;2.17;;;;;;;15.63;50.47;95448.78;5002047;28;20148;-66
2021/08/19 10:33:38;;;;;;;4.22;2.33;;;;;;;15.82;49.75;95459.63;5002064;28;20460;-67
2021/08/19 10:36:09;;;;;;;3.00;2.47;;;;;;;16.17;48.47;95455.66;5001685;28;20088;-67
2021/08/19 10:38:35;;;;;;;4.03;2.90;;;;;;;15.79;48.04;95455.50;5003278;28;20857;-67
2021/08/19 10:41:00;;;;;;;3.38;2.30;;;;;;;16.45;48.19;95447.22;5005283;28;20113;-66
2021/08/19 10:43:30;;;;;;;2.72;2.53;;;;;;;16.02;47.14;95443.41;5006576;28;20083;-67
2021/08/19 10:46:09;;;;;;;3.35;2.30;;;;;;;14.54;51.88;95444.72;5001442;28;20200;-66
2021/08/19 10:48:42;;;;;;;5.00;2.30;;;;;;;16.68;47.40;95447.63;5002590;28;20640;-66
2021/08/19 10:51:11;;;;;;;5.75;3.40;;;;;;;15.64;49.63;95453.13;5005760;28;20082;-67
2021/08/19 10:53:36;;;;;;;3.05;2.33;;;;;;;16.10;49.35;95459.25;4998818;28;20110;-67
2021/08/19 10:56:02;;;;;;;2.83;2.20;;;;;;;16.25;49.07;95456.22;5005206;28;20495;-67
2021/08/19 10:58:32;;;;;;;3.25;2.03;;;;;;;15.87;49.39;95452.56;5005093;28;20505;-66
2021/08/19 11:01:12;;;;;;;4.15;3.60;;;;;;;15.55;50.81;95455.19;5002431;28;20098;-67
2021/08/19 11:03:38;;;;;;;2.83;2.30;;;;;;;15.88;50.13;95448.03;5005794;28;20070;-67
2021/08/19 11:06:04;;;;;;;2.90;2.05;;;;;;;16.13;49.51;95453.44;5005166;28;20122;-67
2021/08/19 11:08:51;;;;;;;3.45;2.05;;;;;;;15.94;49.39;95449.03;5004621;28;20601;-67
2021/08/19 11:11:48;;;;;;;3.22;2.17;;;;;;;16.12;50.40;95450.97;5002084;28;20361;-67
2021/08/19 11:14:17;;;;;;;1.90;1.80;;;;;;;16.03;50.08;95446.88;4963597;28;20122;-67
2021/08/19 11:16:44;;;;;;;2.90;2.55;;;;;;;15.70;52.37;95446.03;5002027;28;20082;-67
2021/08/19 11:19:35;;;;;;;5.43;2.35;;;;;;;16.37;50.33;95451.00;5002659;28;20193;-69
2021/08/19 11:22:03;;;;;;;5.22;3.10;;;;;;;16.46;49.51;95438.09;4999598;28;20559;-69
2021/08/19 11:24:31;;;;;;;3.50;2.40;;;;;;;16.20;50.62;95448.00;5006155;28;20089;-69
2021/08/19 11:26:57;;;;;;;2.78;2.30;;;;;;;17.00;46.99;95448.34;4999733;28;20165;-69
2021/08/19 11:29:44;;;;;;;4.55;2.83;;;;;;;17.17;47.24;95441.59;5004581;28;20098;-67
2021/08/19 11:32:11;;;;;;;2.27;2.07;;;;;;;17.18;47.04;95449.44;5002236;28;20090;-67
2021/08/19 11:34:37;;;;;;;3.15;2.17;;;;;;;17.73;47.45;95450.41;5003684;28;20122;-67